Flugplatz Langenlonsheim

Für EDEL sind keine METAR/TAF Berichte vorhanden.
Es werden die Flugwettermeldungen vom Flugplatz Wiesbaden Army Airfield in 33 km Entfernung angezeigt.

Bericht für ETOU

vom 11.07. um 07:56 UTC

Wind 7 kt aus 360°

Sichtweite 10 km oder mehr

keine Wolken

Temperatur 17.9°C

Taupunkt 8.2°C

Luftfeuchtigkeit 53%

Luftdruck 1023 hPa

ETOU 110756Z AUTO 36007KT 9999 CLR 18/08 A3021 RMK AO2 SLP230 T01790082

Prognose für ETOU

vom 10.07. um 18:59 UTC

Am 10.07. zwischen 18:00 UTC und 06:00 UTC

Wind 9 kt aus 350°

Sichtweite 10 km oder mehr

gering bewölkt in 5000 ft

aufgelockert bewölkt in 9000 ft

aufgebrochene Bewölkung in 15000 ft


Zwischen 06:00 und 07:00 UTC übergehend zu

Wind 6 kt aus 350°

Sichtweite 10 km oder mehr

aufgebrochene Bewölkung in 3000 ft

TAF AMD ETOU 101859Z 1018/1118 35009KT 9999 FEW050 SCT090 BKN150 QNH3000INS BECMG 1106/1107 35006KT 9999 BKN030 QNH3021INS TX23/1112Z TN13/1104Z LAST NO AMDS AFT 1018 NEXT 1304
Impressum